Time;durP1;ratioP1;P1;durP2;ratioP2;P2;SDS_P1;SDS_P2;PMS_P1;PMS_P2;Temp;Humidity;BMP_temperature;BMP_pressure;BME280_temperature;BME280_humidity;BME280_pressure;Samples;Min_cycle;Max_cycle;Signal;HPM_P1;HPM_P2
2021/05/19 00:01:56;;;;;;;3.03;2.43;;;11.80;80.80;;;;;;4954849;28;20454;-50
2021/05/19 00:04:24;;;;;;;2.97;2.70;;;11.70;80.90;;;;;;4954180;28;21018;-49
2021/05/19 00:06:52;;;;;;;3.30;3.10;;;11.70;80.90;;;;;;4952152;28;20967;-49
2021/05/19 00:09:20;;;;;;;2.80;2.60;;;11.70;80.90;;;;;;4960243;28;20832;-50
2021/05/19 00:11:48;;;;;;;2.27;2.07;;;11.70;80.90;;;;;;4955615;28;20459;-49
2021/05/19 00:14:18;;;;;;;2.70;2.50;;;11.70;80.90;;;;;;4960571;28;20494;-50
2021/05/19 00:16:48;;;;;;;2.60;2.40;;;11.70;81.00;;;;;;4960772;28;20955;-50
2021/05/19 00:19:17;;;;;;;3.07;2.77;;;11.70;81.00;;;;;;4955268;28;20458;-50
2021/05/19 00:21:46;;;;;;;2.50;2.40;;;11.60;81.10;;;;;;4957397;28;20458;-50
2021/05/19 00:24:14;;;;;;;3.23;2.83;;;11.60;81.30;;;;;;4957835;28;20467;-50
2021/05/19 00:26:42;;;;;;;2.60;2.40;;;11.60;81.30;;;;;;4956701;28;20481;-50
2021/05/19 00:29:13;;;;;;;2.90;2.70;;;11.50;81.30;;;;;;4956432;28;20459;-50
2021/05/19 00:31:43;;;;;;;2.40;2.20;;;11.60;81.30;;;;;;4958871;28;20482;-50
2021/05/19 00:34:12;;;;;;;3.50;2.73;;;11.60;81.00;;;;;;4955196;28;20875;-50
2021/05/19 00:36:41;;;;;;;3.00;2.50;;;11.60;80.90;;;;;;4952437;28;20468;-50
2021/05/19 00:39:11;;;;;;;2.90;2.30;;;11.60;81.00;;;;;;4955102;28;20459;-50
2021/05/19 00:41:42;;;;;;;2.63;2.43;;;11.50;81.00;;;;;;4959254;28;20975;-50
2021/05/19 00:44:12;;;;;;;3.07;2.83;;;11.50;81.00;;;;;;4961657;28;20466;-49
2021/05/19 00:46:45;;;;;;;3.20;3.00;;;11.50;81.10;;;;;;4956056;28;20852;-50
2021/05/19 00:49:14;;;;;;;4.50;2.80;;;11.40;81.20;;;;;;4958661;28;20467;-50
2021/05/19 00:51:42;;;;;;;2.80;2.60;;;11.40;81.10;;;;;;4952290;28;20483;-50
2021/05/19 00:54:10;;;;;;;4.20;3.17;;;11.40;81.20;;;;;;4951893;28;20547;-50
2021/05/19 00:56:43;;;;;;;3.33;2.80;;;11.40;81.20;;;;;;4955111;28;20455;-50
2021/05/19 00:59:12;;;;;;;3.07;2.77;;;11.40;81.20;;;;;;4956630;28;20869;-50
2021/05/19 01:01:40;;;;;;;2.70;2.50;;;11.40;81.00;;;;;;4955273;28;20965;-50
2021/05/19 01:04:09;;;;;;;2.53;2.33;;;11.40;80.80;;;;;;4954234;28;20991;-50
2021/05/19 01:11:58;;;;;;;3.10;2.90;;;11.30;80.90;;;;;;4961198;28;20878;-50
2021/05/19 01:14:26;;;;;;;3.43;3.13;;;11.30;80.90;;;;;;4949234;28;20524;-49
2021/05/19 01:16:56;;;;;;;3.20;3.00;;;11.30;80.60;;;;;;4955781;28;20462;-50
2021/05/19 01:19:26;;;;;;;3.00;2.80;;;11.20;80.90;;;;;;4956596;28;20489;-50
2021/05/19 01:21:57;;;;;;;3.30;3.10;;;11.10;81.10;;;;;;4951689;28;20463;-50
2021/05/19 01:24:25;;;;;;;3.57;3.27;;;11.10;81.10;;;;;;4957796;28;20493;-50
2021/05/19 01:26:53;;;;;;;6.20;3.60;;;11.00;81.00;;;;;;4956699;28;20462;-50
2021/05/19 01:29:21;;;;;;;3.90;3.50;;;11.00;80.90;;;;;;4954615;28;20462;-50
2021/05/19 01:31:49;;;;;;;4.77;3.47;;;11.00;81.00;;;;;;4957526;28;20471;-50
2021/05/19 01:34:17;;;;;;;3.73;3.03;;;10.90;81.00;;;;;;4950514;28;20996;-50
2021/05/19 01:36:45;;;;;;;3.20;3.00;;;10.90;81.00;;;;;;4954264;28;20463;-50
2021/05/19 01:39:13;;;;;;;4.03;3.27;;;10.90;81.00;;;;;;4956143;28;20809;-50
2021/05/19 01:41:42;;;;;;;3.93;3.53;;;10.80;81.00;;;;;;4953920;28;20991;-50
2021/05/19 01:44:17;;;;;;;4.27;3.87;;;10.80;81.00;;;;;;4957741;28;20494;-50
2021/05/19 01:46:46;;;;;;;4.07;3.70;;;10.80;81.10;;;;;;4960759;28;20461;-50
2021/05/19 01:49:15;;;;;;;3.80;3.50;;;10.80;81.10;;;;;;4953588;28;20477;-50
2021/05/19 01:51:43;;;;;;;4.37;3.80;;;10.80;81.10;;;;;;4958042;28;20486;-50
2021/05/19 01:54:14;;;;;;;3.60;3.30;;;10.70;81.20;;;;;;4955630;28;20487;-50
2021/05/19 01:56:43;;;;;;;3.70;3.50;;;10.70;81.20;;;;;;4954679;28;20482;-50
2021/05/19 01:59:11;;;;;;;3.80;3.57;;;10.70;81.20;;;;;;4957391;28;20455;-50
2021/05/19 02:01:42;;;;;;;3.20;3.00;;;10.60;81.20;;;;;;4955062;28;20480;-50
2021/05/19 02:04:15;;;;;;;11.30;4.00;;;10.60;81.20;;;;;;4953818;28;20470;-50
2021/05/19 02:06:49;;;;;;;4.30;4.00;;;10.60;81.30;;;;;;4950005;28;20619;-50
2021/05/19 02:09:18;;;;;;;4.47;4.07;;;10.60;81.40;;;;;;4958274;28;20463;-50
2021/05/19 02:11:47;;;;;;;4.13;3.73;;;10.60;81.40;;;;;;4953739;28;20502;-50
2021/05/19 02:14:16;;;;;;;3.97;3.67;;;10.60;81.50;;;;;;4954333;28;20491;-50
2021/05/19 02:16:44;;;;;;;3.93;3.63;;;10.50;81.60;;;;;;4955787;28;20463;-50
2021/05/19 02:19:14;;;;;;;4.03;3.60;;;10.50;81.70;;;;;;4955228;28;20462;-50
2021/05/19 02:21:43;;;;;;;4.67;4.27;;;10.50;81.70;;;;;;4956769;28;20840;-50
2021/05/19 02:24:13;;;;;;;4.73;4.33;;;10.50;81.80;;;;;;4952513;28;20905;-50
2021/05/19 02:26:42;;;;;;;5.37;4.30;;;10.40;81.90;;;;;;4953063;28;20885;-50
2021/05/19 02:29:11;;;;;;;4.20;3.80;;;10.50;82.00;;;;;;4955190;28;20482;-50
2021/05/19 02:31:40;;;;;;;3.90;3.60;;;10.50;81.90;;;;;;4960436;28;20458;-50
2021/05/19 02:34:08;;;;;;;3.83;3.43;;;10.40;81.90;;;;;;4952463;28;20463;-50
2021/05/19 02:36:37;;;;;;;4.80;4.40;;;10.40;82.00;;;;;;4951808;28;20455;-46
2021/05/19 02:39:08;;;;;;;4.90;4.50;;;10.40;82.00;;;;;;4947980;28;20455;-46
2021/05/19 02:41:38;;;;;;;4.43;4.10;;;10.40;82.10;;;;;;4953699;28;20538;-46
2021/05/19 02:44:06;;;;;;;4.03;3.57;;;10.40;82.10;;;;;;4949877;28;20474;-47
2021/05/19 02:46:36;;;;;;;5.50;4.13;;;10.40;82.00;;;;;;4957763;28;20916;-46
2021/05/19 02:49:05;;;;;;;4.40;4.00;;;10.40;82.00;;;;;;4953903;28;20454;-47
2021/05/19 02:51:37;;;;;;;4.00;3.70;;;10.40;82.10;;;;;;4957541;28;20470;-47
2021/05/19 02:54:06;;;;;;;4.20;3.83;;;10.40;82.10;;;;;;4951380;28;21009;-46
2021/05/19 02:56:34;;;;;;;3.77;3.33;;;10.40;82.10;;;;;;4954963;28;20844;-46
2021/05/19 02:59:05;;;;;;;3.60;3.30;;;10.40;82.10;;;;;;4958842;28;20471;-47
2021/05/19 03:01:33;;;;;;;4.00;3.60;;;10.40;82.40;;;;;;4950768;28;20459;-46
2021/05/19 03:04:01;;;;;;;4.67;3.80;;;10.40;82.30;;;;;;4957517;28;20455;-47
2021/05/19 03:06:29;;;;;;;4.80;4.03;;;10.40;82.10;;;;;;4955977;28;20459;-47
2021/05/19 03:08:57;;;;;;;3.93;3.63;;;10.40;82.10;;;;;;4948780;28;20471;-46
2021/05/19 03:11:25;;;;;;;4.27;3.87;;;10.30;82.10;;;;;;4956833;28;20693;-46
2021/05/19 03:13:53;;;;;;;4.20;3.90;;;10.20;82.40;;;;;;4952765;28;20501;-47
2021/05/19 03:16:22;;;;;;;4.23;3.33;;;10.20;82.60;;;;;;4955597;28;20497;-46
2021/05/19 03:18:51;;;;;;;4.30;3.90;;;10.20;82.60;;;;;;4955363;28;21066;-46
2021/05/19 03:21:20;;;;;;;5.43;3.40;;;10.20;82.70;;;;;;4957216;28;20454;-46
2021/05/19 03:23:48;;;;;;;5.10;3.40;;;10.20;82.80;;;;;;4955133;28;20813;-46
2021/05/19 03:26:16;;;;;;;3.83;3.53;;;10.20;82.90;;;;;;4965015;28;20871;-46
2021/05/19 03:28:45;;;;;;;3.80;3.50;;;10.20;82.90;;;;;;4955837;28;20546;-46
2021/05/19 03:31:13;;;;;;;5.67;3.77;;;10.10;82.90;;;;;;4953991;28;20470;-47
2021/05/19 03:33:41;;;;;;;3.97;3.60;;;10.10;83.00;;;;;;4955910;28;20482;-47
2021/05/19 03:36:10;;;;;;;4.33;3.93;;;10.20;83.00;;;;;;4955345;28;20490;-46
2021/05/19 03:38:38;;;;;;;3.43;3.13;;;10.10;83.10;;;;;;4950722;28;20454;-46
2021/05/19 03:41:07;;;;;;;3.67;3.37;;;10.20;83.20;;;;;;4954649;28;20462;-47
2021/05/19 03:43:37;;;;;;;3.87;3.57;;;10.10;83.30;;;;;;4953659;28;20466;-47
2021/05/19 03:46:06;;;;;;;4.53;3.33;;;10.20;83.40;;;;;;4954905;28;20463;-46
2021/05/19 03:48:34;;;;;;;3.73;3.40;;;10.20;83.50;;;;;;4956259;28;20489;-46
2021/05/19 03:51:03;;;;;;;4.00;3.17;;;10.20;83.50;;;;;;4950548;28;20995;-46
2021/05/19 03:53:31;;;;;;;4.43;4.03;;;10.20;83.60;;;;;;4955463;28;20455;-47
2021/05/19 03:55:59;;;;;;;3.50;3.20;;;10.20;83.60;;;;;;4952418;28;20503;-47
2021/05/19 03:58:27;;;;;;;3.83;3.53;;;10.20;83.50;;;;;;4952625;28;20817;-46
2021/05/19 04:00:55;;;;;;;4.33;3.93;;;10.20;83.50;;;;;;4953881;28;20471;-47
2021/05/19 04:03:25;;;;;;;3.60;3.30;;;10.20;83.60;;;;;;4955175;28;20821;-46
2021/05/19 04:05:53;;;;;;;5.50;3.50;;;10.20;83.60;;;;;;4952950;28;20463;-47
2021/05/19 04:08:34;;;;;;;3.50;3.20;;;10.30;83.70;;;;;;4953525;28;20469;-47
2021/05/19 04:11:03;;;;;;;3.43;3.13;;;10.30;83.70;;;;;;4950116;28;20471;-47
2021/05/19 04:13:32;;;;;;;4.80;3.80;;;10.30;83.70;;;;;;4953336;28;21096;-47
2021/05/19 04:16:00;;;;;;;4.80;3.63;;;10.30;83.80;;;;;;4955511;28;20502;-47
2021/05/19 04:18:28;;;;;;;3.60;3.30;;;10.30;84.00;;;;;;4953839;28;20479;-47
2021/05/19 04:20:56;;;;;;;4.43;3.60;;;10.30;84.00;;;;;;4953022;28;20968;-47
2021/05/19 04:23:26;;;;;;;4.37;3.97;;;10.40;84.10;;;;;;4953164;28;20469;-47
2021/05/19 04:25:55;;;;;;;4.40;3.90;;;10.50;84.10;;;;;;4953523;28;21104;-47
2021/05/19 04:28:23;;;;;;;4.30;3.67;;;10.50;84.00;;;;;;4953903;28;20854;-47
2021/05/19 04:30:53;;;;;;;7.00;3.70;;;10.50;84.00;;;;;;4953510;28;20469;-46
2021/05/19 04:33:22;;;;;;;4.33;3.70;;;10.50;84.00;;;;;;4961517;28;21129;-47
2021/05/19 04:35:50;;;;;;;3.43;3.13;;;10.50;84.00;;;;;;4955927;28;20490;-47
2021/05/19 04:38:18;;;;;;;3.50;3.20;;;10.50;83.70;;;;;;4955424;28;20459;-46
2021/05/19 04:40:47;;;;;;;3.90;3.60;;;10.50;83.70;;;;;;4956960;28;20522;-46
2021/05/19 04:43:15;;;;;;;6.63;3.40;;;10.50;83.70;;;;;;4955662;28;20459;-46
2021/05/19 04:45:43;;;;;;;3.63;3.33;;;10.50;83.70;;;;;;4958397;28;20463;-46
2021/05/19 04:48:14;;;;;;;5.23;4.30;;;10.60;83.70;;;;;;4958725;28;20463;-46
2021/05/19 04:50:43;;;;;;;4.97;4.57;;;10.60;83.70;;;;;;4950965;28;20467;-47
2021/05/19 04:53:11;;;;;;;4.47;4.07;;;10.70;83.50;;;;;;4958216;28;20490;-46
2021/05/19 04:55:39;;;;;;;5.47;3.67;;;10.70;83.40;;;;;;4953921;28;20489;-46
2021/05/19 04:58:08;;;;;;;4.10;3.70;;;10.70;83.60;;;;;;4952208;28;20483;-47
2021/05/19 05:00:36;;;;;;;4.00;3.70;;;10.80;83.30;;;;;;4950931;28;20458;-47
2021/05/19 05:03:05;;;;;;;4.10;3.10;;;10.80;83.40;;;;;;4947879;28;20461;-46
2021/05/19 05:05:34;;;;;;;3.37;3.07;;;10.80;83.60;;;;;;4951595;28;20466;-47
2021/05/19 05:08:04;;;;;;;4.27;3.57;;;10.80;83.60;;;;;;4952678;28;20465;-47
2021/05/19 05:10:33;;;;;;;3.93;3.63;;;10.80;83.70;;;;;;4953885;28;20474;-46
2021/05/19 05:13:01;;;;;;;4.77;3.50;;;10.80;83.80;;;;;;4956910;28;20462;-46
2021/05/19 05:15:29;;;;;;;5.73;4.00;;;10.90;83.90;;;;;;4955274;28;20499;-47
2021/05/19 05:17:57;;;;;;;5.03;3.83;;;10.90;84.00;;;;;;4953164;28;20467;-47
2021/05/19 05:20:25;;;;;;;3.80;3.17;;;11.00;83.90;;;;;;4955611;28;20820;-46
2021/05/19 05:22:53;;;;;;;4.10;3.67;;;11.10;83.70;;;;;;4959813;28;20466;-47
2021/05/19 05:25:22;;;;;;;5.37;4.23;;;11.10;83.70;;;;;;4954078;28;20466;-47
2021/05/19 05:27:51;;;;;;;3.30;3.00;;;11.10;83.30;;;;;;4951376;28;20454;-47
2021/05/19 05:30:19;;;;;;;3.60;3.20;;;11.10;83.20;;;;;;4953204;28;20478;-46
2021/05/19 05:32:47;;;;;;;3.50;3.20;;;11.20;83.10;;;;;;4950070;28;20463;-47
2021/05/19 05:35:15;;;;;;;4.63;4.23;;;11.20;82.80;;;;;;4953934;28;20486;-47
2021/05/19 05:37:43;;;;;;;3.30;3.00;;;11.20;82.70;;;;;;4954603;28;20465;-46
2021/05/19 05:40:11;;;;;;;4.07;3.70;;;11.30;82.20;;;;;;4951932;28;20878;-46
2021/05/19 05:42:40;;;;;;;4.07;3.77;;;11.30;82.00;;;;;;4953076;28;20443;-47
2021/05/19 05:45:09;;;;;;;3.50;3.20;;;11.30;82.10;;;;;;4951207;28;20990;-46
2021/05/19 05:47:36;;;;;;;3.80;3.43;;;11.30;82.20;;;;;;4953573;28;20831;-46
2021/05/19 05:50:05;;;;;;;4.77;4.37;;;11.40;82.30;;;;;;4957660;28;20965;-47
2021/05/19 05:52:33;;;;;;;5.60;3.50;;;11.40;82.40;;;;;;4950064;28;20493;-46
2021/05/19 05:55:02;;;;;;;3.63;3.37;;;11.40;82.60;;;;;;4959471;28;20827;-46
2021/05/19 05:57:31;;;;;;;4.67;4.20;;;11.40;82.40;;;;;;4950462;28;20466;-46
2021/05/19 05:59:59;;;;;;;4.57;4.17;;;11.40;82.40;;;;;;4955115;28;20475;-46
2021/05/19 06:02:27;;;;;;;4.40;4.03;;;11.40;82.50;;;;;;4956156;28;20471;-46
2021/05/19 06:04:55;;;;;;;5.50;5.00;;;11.50;82.10;;;;;;4954845;28;20896;-46
2021/05/19 06:07:23;;;;;;;4.70;4.20;;;11.50;81.90;;;;;;4951869;28;20465;-47
2021/05/19 06:09:52;;;;;;;4.53;4.23;;;11.60;81.50;;;;;;4957841;28;20475;-46
2021/05/19 06:12:21;;;;;;;10.00;6.83;;;11.70;80.90;;;;;;4954564;28;20470;-46
2021/05/19 06:14:49;;;;;;;6.60;5.90;;;11.70;80.50;;;;;;4954101;28;21023;-46
2021/05/19 06:17:17;;;;;;;5.70;4.97;;;11.80;80.60;;;;;;4951433;28;20503;-46
2021/05/19 06:19:46;;;;;;;5.27;4.70;;;11.80;80.80;;;;;;4952561;28;20554;-46
2021/05/19 06:22:14;;;;;;;6.23;4.97;;;11.90;80.80;;;;;;4947509;28;20458;-46
2021/05/19 06:24:42;;;;;;;5.60;5.10;;;12.00;80.40;;;;;;4956151;28;20862;-46
2021/05/19 06:27:11;;;;;;;5.03;4.23;;;12.10;80.00;;;;;;4953807;28;20469;-46
2021/05/19 06:29:39;;;;;;;5.27;4.87;;;12.20;79.40;;;;;;4957946;28;20451;-46
2021/05/19 06:32:08;;;;;;;6.07;5.00;;;12.30;79.20;;;;;;4956920;28;20467;-46
2021/05/19 06:34:37;;;;;;;6.17;4.60;;;12.40;79.20;;;;;;4956638;28;20539;-46
2021/05/19 06:37:06;;;;;;;5.07;4.57;;;12.40;78.90;;;;;;4957998;28;20542;-46
2021/05/19 06:39:34;;;;;;;3.80;3.50;;;12.40;78.10;;;;;;4961082;28;20451;-46
2021/05/19 06:42:03;;;;;;;5.07;4.30;;;12.50;78.30;;;;;;4955628;28;21063;-46
2021/05/19 06:44:31;;;;;;;5.13;4.63;;;12.50;78.10;;;;;;4953851;28;20459;-46
2021/05/19 06:46:59;;;;;;;4.53;4.10;;;12.60;77.90;;;;;;4959268;28;20490;-46
2021/05/19 06:49:28;;;;;;;5.20;4.23;;;12.60;77.60;;;;;;4949841;28;21023;-47
2021/05/19 06:51:57;;;;;;;4.07;3.77;;;12.70;77.90;;;;;;4955260;28;20482;-46
2021/05/19 06:54:25;;;;;;;4.60;4.07;;;12.70;77.60;;;;;;4954192;28;20458;-46
2021/05/19 06:56:53;;;;;;;4.60;4.20;;;12.80;77.80;;;;;;4958334;28;20848;-46
2021/05/19 06:59:24;;;;;;;4.83;4.10;;;12.90;78.00;;;;;;4951236;28;20466;-46
2021/05/19 07:01:52;;;;;;;5.70;4.70;;;12.90;77.70;;;;;;4953432;28;20843;-47
2021/05/19 07:10:35;;;;;;;4.40;4.00;;;13.30;77.10;;;;;;4992738;28;20527;-47
2021/05/19 07:13:03;;;;;;;4.70;3.90;;;13.50;76.80;;;;;;5001598;28;20481;-47
2021/05/19 07:15:35;;;;;;;5.30;4.33;;;13.70;76.30;;;;;;5004990;28;20488;-47
2021/05/19 07:18:08;;;;;;;5.57;5.00;;;13.80;73.80;;;;;;5003501;28;20487;-47
2021/05/19 07:20:43;;;;;;;7.33;4.40;;;13.90;73.60;;;;;;5006965;28;20983;-47
2021/05/19 07:23:12;;;;;;;5.10;4.60;;;13.90;74.40;;;;;;5003968;28;20459;-47
2021/05/19 07:25:41;;;;;;;4.23;3.83;;;14.00;74.90;;;;;;5004971;28;20461;-47
2021/05/19 07:28:09;;;;;;;5.30;4.37;;;14.00;74.70;;;;;;5006822;28;20475;-47
2021/05/19 07:30:38;;;;;;;4.70;4.30;;;14.10;74.20;;;;;;5005688;28;20829;-47
2021/05/19 07:33:08;;;;;;;6.33;5.73;;;14.20;74.10;;;;;;5006568;28;20464;-47
2021/05/19 07:35:36;;;;;;;4.70;4.30;;;14.30;74.40;;;;;;5005163;28;20499;-47
2021/05/19 07:38:08;;;;;;;4.77;3.90;;;14.50;74.20;;;;;;5005510;28;20460;-47
2021/05/19 07:40:36;;;;;;;4.50;4.10;;;14.60;73.40;;;;;;5007036;28;20459;-47
2021/05/19 07:43:04;;;;;;;4.73;4.33;;;14.80;71.70;;;;;;5004568;28;20501;-47
2021/05/19 07:45:32;;;;;;;5.23;4.40;;;14.90;70.90;;;;;;5005793;28;20964;-47
2021/05/19 07:47:59;;;;;;;6.17;4.00;;;15.00;70.00;;;;;;5005736;28;20657;-47
2021/05/19 07:50:26;;;;;;;7.20;4.17;;;15.10;69.80;;;;;;5008469;28;20448;-47
2021/05/19 07:52:54;;;;;;;5.17;4.63;;;15.10;70.30;;;;;;5005931;28;20495;-47
2021/05/19 07:55:29;;;;;;;4.67;4.27;;;15.30;68.90;;;;;;5002696;28;20535;-46
2021/05/19 07:58:02;;;;;;;5.60;4.10;;;15.40;69.90;;;;;;5005882;28;20942;-46
2021/05/19 08:02:58;;;;;;;4.70;3.57;;;15.50;70.00;;;;;;5009656;28;20928;-47
2021/05/19 08:05:24;;;;;;;4.00;3.03;;;15.60;68.90;;;;;;5010344;28;20428;-47
2021/05/19 08:07:51;;;;;;;4.40;4.00;;;15.70;68.90;;;;;;5010092;28;20531;-47
2021/05/19 08:10:17;;;;;;;4.77;4.20;;;15.80;69.20;;;;;;5011167;28;20441;-46
2021/05/19 08:12:44;;;;;;;4.00;3.50;;;15.80;67.20;;;;;;5010787;28;20991;-47
2021/05/19 08:15:11;;;;;;;4.27;3.87;;;15.80;67.30;;;;;;5009373;28;20444;-46
2021/05/19 08:17:37;;;;;;;3.77;3.47;;;15.90;67.50;;;;;;5008878;28;20475;-47
2021/05/19 08:20:07;;;;;;;4.27;3.37;;;16.10;67.60;;;;;;5005714;28;20469;-46
2021/05/19 08:22:35;;;;;;;4.93;4.43;;;16.30;67.20;;;;;;5007661;28;20464;-46
2021/05/19 08:25:03;;;;;;;4.07;3.70;;;16.40;66.70;;;;;;5007443;28;20830;-47
2021/05/19 08:27:31;;;;;;;4.90;3.43;;;16.50;66.10;;;;;;5005514;28;20448;-46
2021/05/19 08:29:59;;;;;;;4.73;3.50;;;16.50;66.10;;;;;;5007520;28;20464;-46
2021/05/19 08:32:28;;;;;;;3.30;3.00;;;16.60;64.80;;;;;;5006120;28;20471;-47
2021/05/19 08:34:55;;;;;;;3.70;3.20;;;16.70;64.80;;;;;;5011549;28;20460;-46
2021/05/19 08:37:24;;;;;;;3.50;3.20;;;16.80;64.20;;;;;;5006328;28;20500;-46
2021/05/19 08:39:52;;;;;;;3.33;3.03;;;17.00;64.10;;;;;;5009845;28;20452;-46
2021/05/19 08:42:20;;;;;;;5.37;2.63;;;17.20;63.20;;;;;;5007580;28;20479;-46
2021/05/19 08:44:49;;;;;;;2.90;2.60;;;17.40;63.40;;;;;;5005305;28;20518;-47
2021/05/19 08:47:24;;;;;;;3.77;2.67;;;17.50;62.60;;;;;;5008501;28;20471;-46
2021/05/19 08:49:52;;;;;;;3.53;2.70;;;17.60;62.40;;;;;;5008892;28;20440;-46
2021/05/19 08:52:21;;;;;;;6.70;3.83;;;17.80;61.20;;;;;;5008821;28;20813;-46
2021/05/19 08:54:53;;;;;;;4.67;3.57;;;17.90;59.20;;;;;;5008306;28;20851;-47
2021/05/19 08:57:21;;;;;;;3.33;2.40;;;18.10;58.30;;;;;;5006929;28;20488;-46
2021/05/19 08:59:49;;;;;;;4.20;3.40;;;18.10;59.40;;;;;;5008397;28;20980;-46
2021/05/19 09:02:18;;;;;;;3.43;3.00;;;18.20;60.30;;;;;;5006405;28;20476;-47
2021/05/19 09:04:58;;;;;;;3.90;2.77;;;18.20;59.60;;;;;;5004084;28;20461;-47
2021/05/19 09:07:26;;;;;;;3.43;2.40;;;18.10;59.30;;;;;;5005497;28;20468;-47
2021/05/19 09:09:54;;;;;;;2.70;2.23;;;17.90;59.90;;;;;;5009112;28;20488;-47
2021/05/19 09:12:23;;;;;;;5.07;2.20;;;17.70;60.80;;;;;;5007555;28;20487;-47
2021/05/19 09:14:51;;;;;;;2.70;2.17;;;17.50;60.50;;;;;;5007309;28;20487;-47
2021/05/19 09:17:30;;;;;;;2.60;2.40;;;17.50;60.60;;;;;;5008619;28;20496;-47
2021/05/19 09:20:01;;;;;;;3.60;2.30;;;17.50;61.00;;;;;;5007785;28;20468;-47
2021/05/19 09:22:33;;;;;;;2.57;1.90;;;17.80;59.90;;;;;;5009614;28;20992;-47
2021/05/19 09:25:13;;;;;;;1.83;1.30;;;18.20;59.00;;;;;;5005689;28;20830;-47
2021/05/19 09:27:43;;;;;;;1.87;1.30;;;18.50;57.70;;;;;;5006301;28;20460;-47
2021/05/19 09:30:11;;;;;;;4.60;2.50;;;18.60;56.40;;;;;;5003818;28;20471;-47
2021/05/19 09:32:43;;;;;;;2.83;1.40;;;18.60;57.10;;;;;;5007295;28;20476;-47
2021/05/19 09:35:15;;;;;;;2.50;2.07;;;18.50;56.50;;;;;;5003536;28;20547;-47
2021/05/19 09:37:44;;;;;;;2.07;1.60;;;18.20;56.70;;;;;;4998366;28;20770;-47
2021/05/19 09:40:13;;;;;;;2.10;1.33;;;18.10;57.40;;;;;;5004641;28;20468;-46
2021/05/19 09:42:43;;;;;;;1.87;0.73;;;18.10;56.90;;;;;;5007899;28;20460;-46
2021/05/19 09:45:28;;;;;;;2.00;0.90;;;18.50;52.10;;;;;;5007826;28;20471;-46
2021/05/19 09:47:57;;;;;;;2.10;0.80;;;19.10;49.20;;;;;;5004905;28;20492;-48
2021/05/19 09:50:37;;;;;;;1.10;0.60;;;19.70;48.90;;;;;;5007421;28;20511;-46
2021/05/19 09:53:16;;;;;;;3.83;1.10;;;20.40;46.20;;;;;;5007265;28;20465;-46
2021/05/19 09:55:54;;;;;;;0.93;0.80;;;21.00;43.90;;;;;;5001117;28;20472;-46
2021/05/19 09:58:36;;;;;;;1.40;0.80;;;21.40;44.40;;;;;;5007573;28;20538;-46
2021/05/19 10:01:05;;;;;;;2.03;0.80;;;21.70;43.10;;;;;;5005936;28;20480;-46
2021/05/19 10:03:35;;;;;;;1.30;0.80;;;21.80;43.20;;;;;;5004162;28;20845;-45
2021/05/19 10:06:23;;;;;;;2.40;1.00;;;21.60;42.80;;;;;;5004049;28;20506;-45
2021/05/19 10:08:51;;;;;;;3.13;1.00;;;21.00;43.30;;;;;;5000984;28;20487;-45
2021/05/19 10:11:20;;;;;;;1.43;0.80;;;20.30;45.10;;;;;;5008235;28;20813;-45
2021/05/19 10:13:49;;;;;;;4.47;1.37;;;19.70;46.60;;;;;;5002188;28;20460;-45
2021/05/19 10:16:19;;;;;;;1.30;0.90;;;19.40;48.50;;;;;;5008161;28;20484;-45
2021/05/19 10:18:54;;;;;;;1.87;0.90;;;19.30;48.30;;;;;;5006820;28;20952;-45
2021/05/19 10:21:30;;;;;;;1.90;0.90;;;19.20;48.30;;;;;;5005094;28;20482;-45
2021/05/19 10:24:13;;;;;;;1.30;0.70;;;19.10;48.00;;;;;;5004261;28;20460;-45
2021/05/19 10:27:01;;;;;;;1.00;0.60;;;19.00;47.10;;;;;;5003462;28;20477;-45
2021/05/19 10:29:48;;;;;;;2.37;0.60;;;18.90;48.10;;;;;;5004396;28;20836;-45
2021/05/19 10:32:22;;;;;;;0.97;0.50;;;18.90;48.10;;;;;;5005365;28;20827;-45
2021/05/19 10:34:54;;;;;;;1.10;0.60;;;19.00;47.90;;;;;;5007310;28;20452;-45
2021/05/19 10:37:29;;;;;;;1.40;0.60;;;18.90;47.50;;;;;;5005189;28;21768;-47
2021/05/19 10:40:07;;;;;;;0.97;0.87;;;18.80;47.40;;;;;;5008942;28;20450;-46
2021/05/19 10:42:37;;;;;;;3.50;1.10;;;18.60;47.90;;;;;;5006936;28;20463;-46
2021/05/19 10:45:08;;;;;;;1.47;0.70;;;18.60;48.20;;;;;;5007819;28;20470;-46
2021/05/19 10:47:36;;;;;;;2.50;1.00;;;18.50;49.60;;;;;;5005012;28;20456;-46
2021/05/19 10:59:02;;;;;;;2.57;1.00;;;18.20;48.50;;;;;;5003650;28;20453;-46
2021/05/19 11:01:40;;;;;;;2.00;0.60;;;18.10;49.50;;;;;;4999566;28;20479;-46
2021/05/19 11:04:13;;;;;;;2.30;0.70;;;18.10;48.50;;;;;;4999894;28;20467;-46
2021/05/19 11:06:56;;;;;;;2.93;0.80;;;18.00;50.50;;;;;;5006561;28;20464;-46
2021/05/19 11:09:29;;;;;;;3.33;0.80;;;17.90;50.40;;;;;;5005119;28;20468;-46
2021/05/19 11:12:21;;;;;;;1.93;0.80;;;17.80;50.30;;;;;;4992843;28;20975;-46
2021/05/19 11:17:38;;;;;;;2.00;0.90;;;17.80;48.20;;;;;;5004281;28;20484;-46
2021/05/19 11:20:07;;;;;;;1.43;0.73;;;17.80;49.50;;;;;;5001881;28;20471;-46
2021/05/19 11:22:36;;;;;;;1.13;0.70;;;17.90;49.50;;;;;;5006594;28;20464;-46
2021/05/19 11:25:06;;;;;;;2.20;0.70;;;18.00;48.00;;;;;;5005498;28;20461;-46
2021/05/19 11:27:36;;;;;;;2.97;0.83;;;18.10;48.00;;;;;;5007014;28;20453;-46
2021/05/19 11:30:17;;;;;;;1.73;0.77;;;18.10;48.20;;;;;;5006024;28;20510;-46
2021/05/19 11:32:47;;;;;;;1.37;0.83;;;18.10;48.30;;;;;;5004012;28;20460;-46
2021/05/19 11:35:20;;;;;;;1.00;0.93;;;18.20;48.70;;;;;;5005043;28;20465;-46
2021/05/19 11:38:01;;;;;;;1.30;0.70;;;18.20;48.60;;;;;;5009095;28;20574;-46
2021/05/19 11:40:46;;;;;;;2.30;0.93;;;18.30;47.60;;;;;;5010778;28;20464;-46
2021/05/19 11:43:16;;;;;;;1.67;1.00;;;18.30;48.10;;;;;;5011240;28;20460;-46
2021/05/19 11:45:46;;;;;;;1.97;0.80;;;18.30;47.50;;;;;;5010354;28;20873;-46
2021/05/19 11:48:26;;;;;;;1.73;1.07;;;18.30;47.90;;;;;;5010974;28;20463;-46
2021/05/19 11:51:24;;;;;;;1.00;0.70;;;18.40;48.10;;;;;;5008652;28;20464;-46
2021/05/19 11:54:00;;;;;;;2.20;0.87;;;18.40;48.10;;;;;;5008279;28;20474;-46
2021/05/19 11:56:50;;;;;;;2.70;0.67;;;18.40;49.00;;;;;;5007574;28;20463;-46
2021/05/19 11:59:24;;;;;;;2.77;0.70;;;18.50;48.60;;;;;;5009035;28;20471;-46
2021/05/19 12:01:53;;;;;;;1.93;0.70;;;18.50;47.50;;;;;;5012626;28;20826;-46
2021/05/19 12:04:21;;;;;;;2.20;1.30;;;18.50;47.50;;;;;;5010075;28;20732;-47
2021/05/19 12:06:50;;;;;;;1.90;0.50;;;18.50;47.10;;;;;;5012007;28;20449;-46
2021/05/19 12:09:18;;;;;;;3.57;0.80;;;18.60;48.20;;;;;;5012682;28;20511;-46
2021/05/19 12:11:46;;;;;;;1.83;0.60;;;18.60;48.40;;;;;;5010236;28;20882;-46
2021/05/19 12:14:15;;;;;;;3.67;0.67;;;18.60;49.00;;;;;;5011694;28;20460;-46
2021/05/19 12:16:47;;;;;;;1.03;0.40;;;18.60;48.30;;;;;;5013472;28;20491;-46
2021/05/19 12:19:25;;;;;;;2.30;1.00;;;18.60;48.90;;;;;;5014653;28;21196;-46
2021/05/19 12:22:14;;;;;;;2.10;0.70;;;18.70;48.70;;;;;;5013252;28;20463;-46
2021/05/19 12:24:42;;;;;;;5.20;2.40;;;18.80;48.10;;;;;;5010013;28;20483;-46
2021/05/19 12:27:11;;;;;;;1.50;0.90;;;18.80;48.10;;;;;;5009327;28;20471;-46
2021/05/19 12:29:48;;;;;;;1.57;0.70;;;18.90;48.80;;;;;;5013587;28;20786;-46
2021/05/19 12:32:25;;;;;;;4.33;0.90;;;18.80;48.70;;;;;;5012093;28;20450;-46
2021/05/19 12:35:15;;;;;;;1.40;0.80;;;18.80;48.20;;;;;;5012614;28;20525;-46
2021/05/19 12:38:01;;;;;;;1.50;0.67;;;18.70;47.70;;;;;;5012708;28;20487;-46
2021/05/19 12:40:32;;;;;;;6.63;1.27;;;18.70;47.90;;;;;;5010953;28;20463;-46
2021/05/19 12:43:02;;;;;;;3.50;1.00;;;18.70;49.10;;;;;;5014868;28;20455;-46
2021/05/19 12:45:36;;;;;;;1.63;0.60;;;18.60;48.00;;;;;;5010444;28;20472;-46
2021/05/19 12:48:11;;;;;;;5.90;0.80;;;18.60;47.50;;;;;;5012513;28;20823;-46
2021/05/19 12:50:58;;;;;;;1.80;0.93;;;18.50;49.70;;;;;;5010217;28;20460;-46
2021/05/19 12:53:33;;;;;;;2.67;0.70;;;18.40;50.30;;;;;;5007458;28;20495;-46
2021/05/19 12:56:04;;;;;;;3.43;1.13;;;18.30;51.90;;;;;;5009702;28;20466;-46
2021/05/19 12:58:59;;;;;;;2.33;0.97;;;18.20;53.80;;;;;;5006772;28;20499;-46
2021/05/19 13:01:29;;;;;;;2.03;0.90;;;18.00;54.70;;;;;;4996135;28;20479;-47
2021/05/19 13:04:01;;;;;;;3.00;1.17;;;17.90;55.80;;;;;;5006825;28;20464;-46
2021/05/19 13:06:30;;;;;;;2.10;1.70;;;17.80;55.80;;;;;;5006407;28;20480;-46
2021/05/19 13:09:00;;;;;;;1.23;1.13;;;17.70;56.40;;;;;;4991655;28;20472;-46
2021/05/19 13:11:29;;;;;;;2.20;1.07;;;17.60;56.30;;;;;;5005742;28;20476;-46
2021/05/19 13:14:02;;;;;;;1.10;1.00;;;17.60;56.40;;;;;;5010101;28;20460;-46
2021/05/19 13:16:36;;;;;;;0.90;0.80;;;17.60;57.30;;;;;;5010928;28;20453;-46
2021/05/19 13:19:09;;;;;;;2.67;1.00;;;17.70;56.70;;;;;;5010753;28;20440;-46
2021/05/19 13:21:45;;;;;;;1.63;0.80;;;17.90;55.40;;;;;;5006853;28;20957;-46
2021/05/19 13:24:18;;;;;;;2.10;0.70;;;17.90;53.90;;;;;;5007644;28;20980;-46
2021/05/19 13:27:02;;;;;;;1.80;0.87;;;18.00;53.90;;;;;;5005658;28;20460;-46
2021/05/19 13:29:32;;;;;;;3.30;0.70;;;18.00;52.30;;;;;;5007628;28;20828;-46
2021/05/19 13:32:45;;;;;;;3.33;1.00;;;18.00;54.40;;;;;;5004416;28;20453;-46